createdAt,value
2018-04-17T00:00:44.775Z,35.47
2018-04-17T00:03:12.339Z,34.83
2018-04-17T00:05:39.917Z,37.83
2018-04-17T00:08:07.472Z,36.57
2018-04-17T00:10:35.039Z,35.77
2018-04-17T00:13:02.579Z,37.10
2018-04-17T00:15:30.235Z,35.33
2018-04-17T00:17:57.782Z,35.80
2018-04-17T00:20:25.372Z,35.77
2018-04-17T00:22:52.927Z,33.70
2018-04-17T00:25:20.544Z,36.70
2018-04-17T00:27:48.149Z,37.30
2018-04-17T00:30:15.717Z,38.43
2018-04-17T00:32:43.470Z,38.77
2018-04-17T00:35:11.044Z,36.27
2018-04-17T00:37:38.598Z,40.90
2018-04-17T00:40:06.219Z,35.87
2018-04-17T00:42:35.074Z,36.27
2018-04-17T00:45:03.720Z,40.50
2018-04-17T00:47:31.310Z,39.03
2018-04-17T00:49:59.495Z,38.67
2018-04-17T00:52:27.300Z,38.17
2018-04-17T00:54:55.035Z,38.60
2018-04-17T01:00:13.937Z,38.87
2018-04-17T01:02:41.494Z,40.20
2018-04-17T01:05:09.043Z,42.37
2018-04-17T01:07:36.544Z,43.27
2018-04-17T01:10:04.088Z,44.60
2018-04-17T01:12:31.596Z,43.30
2018-04-17T01:14:59.921Z,44.57
2018-04-17T01:17:27.426Z,44.10
2018-04-17T01:19:55.538Z,47.17
2018-04-17T01:22:23.142Z,44.67
2018-04-17T01:24:50.717Z,46.27
2018-04-17T01:27:18.224Z,47.13
2018-04-17T01:29:45.782Z,48.40
2018-04-17T01:32:13.465Z,45.73
2018-04-17T01:34:41.116Z,46.40
2018-04-17T01:37:08.636Z,47.80
2018-04-17T01:39:36.275Z,49.97
2018-04-17T01:42:04.568Z,46.67
2018-04-17T01:44:32.970Z,47.20
2018-04-17T01:47:00.521Z,51.43
2018-04-17T01:49:28.169Z,51.60
2018-04-17T01:51:56.480Z,49.73
2018-04-17T01:54:24.036Z,47.87
2018-04-17T01:56:51.581Z,51.63
2018-04-17T01:59:19.168Z,51.77
2018-04-17T02:01:46.821Z,49.90
2018-04-17T02:04:14.480Z,52.57
2018-04-17T02:06:42.016Z,51.60
2018-04-17T02:09:10.308Z,52.80
2018-04-17T02:11:37.853Z,53.17
2018-04-17T02:14:05.524Z,51.77
2018-04-17T02:16:33.073Z,52.57
2018-04-17T02:19:01.358Z,53.37
2018-04-17T02:21:28.901Z,54.13
2018-04-17T02:23:56.460Z,55.27
2018-04-17T02:26:24.876Z,57.03
2018-04-17T02:28:52.532Z,52.40
2018-04-17T02:31:20.090Z,55.77
2018-04-17T02:33:47.650Z,54.33
2018-04-17T02:36:15.203Z,55.77
2018-04-17T02:38:42.777Z,57.07
2018-04-17T02:41:10.332Z,55.20
2018-04-17T02:43:37.889Z,57.80
2018-04-17T02:46:05.548Z,54.13
2018-04-17T02:48:33.077Z,55.80
2018-04-17T02:51:01.486Z,54.40
2018-04-17T02:53:29.000Z,59.77
2018-04-17T02:55:57.329Z,57.03
2018-04-17T02:58:24.915Z,59.70
2018-04-17T03:00:52.464Z,58.20
2018-04-17T03:03:20.204Z,59.17
2018-04-17T03:05:47.764Z,55.27
2018-04-17T03:08:15.392Z,59.00
2018-04-17T03:10:43.803Z,59.27
2018-04-17T03:13:11.465Z,60.20
2018-04-17T03:15:39.017Z,57.80
2018-04-17T03:18:06.538Z,60.77
2018-04-17T03:20:34.294Z,60.77
2018-04-17T03:23:01.808Z,61.60
2018-04-17T03:25:29.571Z,59.30
2018-04-17T03:27:57.238Z,61.60
2018-04-17T03:30:24.910Z,59.17
2018-04-17T03:32:52.426Z,58.33
2018-04-17T03:35:20.711Z,61.87
2018-04-17T03:37:49.025Z,61.57
2018-04-17T03:40:16.548Z,62.90
2018-04-17T03:42:44.112Z,63.00
2018-04-17T03:45:11.893Z,60.77
2018-04-17T03:47:39.420Z,63.37
2018-04-17T03:50:07.812Z,61.43
2018-04-17T03:52:35.324Z,66.30
2018-04-17T03:55:02.884Z,64.03
2018-04-17T03:57:30.422Z,63.80
2018-04-17T03:59:57.977Z,62.77
2018-04-17T04:02:25.505Z,65.23
2018-04-17T04:04:53.179Z,66.07
2018-04-17T04:07:20.711Z,62.10
2018-04-17T04:09:49.035Z,69.60
2018-04-17T04:12:16.652Z,67.90
2018-04-17T04:14:45.059Z,67.73
2018-04-17T04:17:24.247Z,73.37
2018-04-17T04:20:03.614Z,69.77
2018-04-17T04:22:42.869Z,70.77
2018-04-17T04:28:14.025Z,72.67
2018-04-17T04:30:41.538Z,71.37
2018-04-17T04:33:09.441Z,69.77
2018-04-17T04:35:37.216Z,73.97
2018-04-17T04:38:04.888Z,70.47
2018-04-17T04:40:32.418Z,68.77
2018-04-17T04:42:59.946Z,65.73
2018-04-17T04:45:27.479Z,67.60
2018-04-17T04:47:54.997Z,69.40
2018-04-17T04:50:22.771Z,62.80
2018-04-17T04:52:51.022Z,69.30
2018-04-17T04:55:18.603Z,63.57
2018-04-17T04:57:46.263Z,67.63
2018-04-17T05:00:13.931Z,66.73
2018-04-17T05:02:41.490Z,66.07
2018-04-17T05:05:09.148Z,43.67
2018-04-17T05:07:36.693Z,67.13
2018-04-17T05:10:04.992Z,65.33
2018-04-17T05:12:32.759Z,70.33
2018-04-17T05:15:00.334Z,62.93
2018-04-17T05:17:28.695Z,64.43
2018-04-17T05:19:56.270Z,67.50
2018-04-17T05:22:23.816Z,60.37
2018-04-17T05:24:51.349Z,57.77
2018-04-17T05:27:19.662Z,61.60
2018-04-17T05:29:47.415Z,56.40
2018-04-17T05:32:14.963Z,61.87
2018-04-17T05:34:42.548Z,58.97
2018-04-17T05:37:10.195Z,58.70
2018-04-17T05:39:37.857Z,58.77
2018-04-17T05:42:05.388Z,56.27
2018-04-17T05:44:33.809Z,57.37
2018-04-17T05:47:01.462Z,60.97
2018-04-17T05:49:28.989Z,59.47
2018-04-17T05:51:57.291Z,58.37
2018-04-17T05:54:24.874Z,58.30
2018-04-17T05:56:52.430Z,60.67
2018-04-17T05:59:20.048Z,60.40
2018-04-17T06:01:48.357Z,59.03
2018-04-17T06:04:16.368Z,59.50
2018-04-17T06:06:44.406Z,59.97
2018-04-17T06:09:11.934Z,58.50
2018-04-17T06:11:39.524Z,61.27
2018-04-17T06:14:07.997Z,61.77
2018-04-17T06:16:35.508Z,58.93
2018-04-17T06:19:03.049Z,57.20
2018-04-17T06:21:30.773Z,58.37
2018-04-17T06:23:58.344Z,58.67
2018-04-17T06:26:25.911Z,58.37
2018-04-17T06:28:53.451Z,58.07
2018-04-17T06:31:21.060Z,55.77
2018-04-17T06:33:48.624Z,57.53
2018-04-17T06:36:16.208Z,51.20
2018-04-17T06:38:44.508Z,57.83
2018-04-17T06:41:12.073Z,55.50
2018-04-17T06:43:39.629Z,56.47
2018-04-17T06:46:07.412Z,53.90
2018-04-17T06:48:34.945Z,53.97
2018-04-17T06:51:02.525Z,47.37
2018-04-17T06:53:30.171Z,52.53
2018-04-17T06:55:57.711Z,54.23
2018-04-17T06:58:26.036Z,54.23
2018-04-17T07:00:53.551Z,53.73
2018-04-17T07:03:21.230Z,54.50
2018-04-17T07:05:48.775Z,57.47
2018-04-17T07:08:18.185Z,55.47
2018-04-17T07:10:45.862Z,55.70
2018-04-17T07:13:13.509Z,51.07
2018-04-17T07:15:41.069Z,50.50
2018-04-17T07:18:08.741Z,50.87
2018-04-17T07:20:36.378Z,50.33
2018-04-17T07:23:03.933Z,49.53
2018-04-17T07:25:31.522Z,52.93
2018-04-17T07:27:59.289Z,50.30
2018-04-17T07:30:26.843Z,51.33
2018-04-17T07:32:54.408Z,51.40
2018-04-17T07:35:21.945Z,47.07
2018-04-17T07:37:49.667Z,52.33
2018-04-17T07:40:17.296Z,52.13
2018-04-17T07:42:44.928Z,49.27
2018-04-17T07:45:12.709Z,44.30
2018-04-17T07:48:00.852Z,50.03
2018-04-17T07:50:28.720Z,47.57
2018-04-17T07:52:56.313Z,52.77
2018-04-17T07:55:23.890Z,51.27
2018-04-17T07:57:52.317Z,48.73
2018-04-17T08:00:19.877Z,46.17
2018-04-17T08:02:47.391Z,45.03
2018-04-17T08:05:15.128Z,47.40
2018-04-17T08:07:42.642Z,50.53
2018-04-17T08:10:10.188Z,47.73
2018-04-17T08:12:37.744Z,36.43
2018-04-17T08:15:06.155Z,47.60
2018-04-17T08:17:33.839Z,47.43
2018-04-17T08:20:01.656Z,44.37
2018-04-17T08:22:29.392Z,46.30
2018-04-17T08:24:56.953Z,49.30
2018-04-17T08:27:25.104Z,47.77
2018-04-17T08:29:52.732Z,44.00
2018-04-17T08:32:20.402Z,35.90
2018-04-17T08:34:47.991Z,47.03
2018-04-17T08:37:15.630Z,50.40
2018-04-17T08:39:43.144Z,41.87
2018-04-17T08:42:10.686Z,45.27
2018-04-17T08:44:38.222Z,45.77
2018-04-17T08:47:05.867Z,46.40
2018-04-17T08:49:33.393Z,51.57
2018-04-17T08:52:01.023Z,47.30
2018-04-17T08:54:28.620Z,50.30
2018-04-17T08:56:56.208Z,50.17
2018-04-17T08:59:24.118Z,47.37
2018-04-17T09:01:52.143Z,55.73
2018-04-17T09:04:19.942Z,48.60
2018-04-17T09:06:47.671Z,49.60
2018-04-17T09:09:15.196Z,48.43
2018-04-17T09:11:43.518Z,50.93
2018-04-17T09:14:11.036Z,50.97
2018-04-17T09:16:38.742Z,50.67
2018-04-17T09:19:06.325Z,48.30
2018-04-17T09:21:34.897Z,46.60
2018-04-17T09:24:02.486Z,49.33
2018-04-17T09:26:30.090Z,47.47
2018-04-17T09:28:57.815Z,48.13
2018-04-17T09:31:25.495Z,51.73
2018-04-17T09:33:53.024Z,48.30
2018-04-17T09:36:20.798Z,48.80
2018-04-17T09:38:48.378Z,52.87
2018-04-17T09:41:16.728Z,48.80
2018-04-17T09:43:44.443Z,49.53
2018-04-17T09:46:11.991Z,52.27
2018-04-17T09:48:39.579Z,50.83
2018-04-17T09:51:07.225Z,49.20
2018-04-17T09:53:34.815Z,50.57
2018-04-17T09:56:02.408Z,52.40
2018-04-17T09:58:30.761Z,50.80
2018-04-17T10:00:58.316Z,49.57
2018-04-17T10:03:25.845Z,48.53
2018-04-17T10:05:53.379Z,55.50
2018-04-17T10:08:21.544Z,52.07
2018-04-17T10:10:49.836Z,51.27
2018-04-17T10:13:17.408Z,53.33
2018-04-17T10:15:51.809Z,52.50
2018-04-17T10:18:19.383Z,52.10
2018-04-17T10:20:47.028Z,53.93
2018-04-17T10:23:14.633Z,48.97
2018-04-17T10:25:42.148Z,53.07
2018-04-17T10:28:10.137Z,53.53
2018-04-17T10:30:37.653Z,53.27
2018-04-17T10:33:05.948Z,54.07
2018-04-17T10:35:34.353Z,53.73
2018-04-17T10:38:01.862Z,49.70
2018-04-17T10:40:29.434Z,51.83
2018-04-17T10:42:57.138Z,52.10
2018-04-17T10:45:24.676Z,54.27
2018-04-17T10:47:52.201Z,51.70
2018-04-17T10:50:19.817Z,51.17
2018-04-17T10:52:47.368Z,50.37
2018-04-17T10:55:14.957Z,53.90
2018-04-17T10:57:42.474Z,48.87
2018-04-17T11:00:10.050Z,52.60
2018-04-17T11:02:37.606Z,47.77
2018-04-17T11:05:05.371Z,50.20
2018-04-17T11:07:32.890Z,53.50
2018-04-17T11:10:01.213Z,53.37
2018-04-17T11:12:29.729Z,51.20
2018-04-17T11:14:57.272Z,53.77
2018-04-17T11:17:24.912Z,51.50
2018-04-17T11:19:52.560Z,48.70
2018-04-17T11:22:20.131Z,51.30
2018-04-17T11:24:47.673Z,52.37
2018-04-17T11:27:15.299Z,50.70
2018-04-17T11:29:42.797Z,50.70
2018-04-17T11:32:11.143Z,57.37
2018-04-17T11:34:38.840Z,50.13
2018-04-17T11:37:11.117Z,54.43
2018-04-17T11:39:38.675Z,50.70
2018-04-17T11:42:06.324Z,53.50
2018-04-17T11:44:34.659Z,52.00
2018-04-17T11:47:02.209Z,53.17
2018-04-17T11:49:30.181Z,53.20
2018-04-17T11:51:59.619Z,49.87
2018-04-17T11:54:27.309Z,50.97
2018-04-17T11:56:55.181Z,48.63
2018-04-17T11:59:22.720Z,48.33
2018-04-17T12:01:50.346Z,54.27
2018-04-17T12:04:17.876Z,49.17
2018-04-17T12:06:45.469Z,51.00
2018-04-17T12:09:12.993Z,47.13
2018-04-17T12:11:40.517Z,48.70
2018-04-17T12:14:08.181Z,44.60
2018-04-17T12:16:36.521Z,49.00
2018-04-17T12:19:04.082Z,47.13
2018-04-17T12:21:31.804Z,48.40
2018-04-17T12:23:59.380Z,48.43
2018-04-17T12:26:26.930Z,46.00
2018-04-17T12:28:54.475Z,44.53
2018-04-17T12:31:22.008Z,46.77
2018-04-17T12:33:50.298Z,46.50
2018-04-17T12:36:17.820Z,44.97
2018-04-17T12:38:45.344Z,42.70
2018-04-17T12:41:12.858Z,41.97
2018-04-17T12:43:41.093Z,46.03
2018-04-17T12:46:08.622Z,45.07
2018-04-17T12:48:36.149Z,44.57
2018-04-17T12:51:04.424Z,41.53
2018-04-17T12:53:32.727Z,43.90
2018-04-17T12:56:00.241Z,43.07
2018-04-17T12:58:27.830Z,45.13
2018-04-17T13:00:55.350Z,44.43
2018-04-17T13:03:22.856Z,44.00
2018-04-17T13:05:50.388Z,39.00
2018-04-17T13:08:18.668Z,43.30
2018-04-17T13:10:47.749Z,43.33
2018-04-17T13:13:15.275Z,41.30
2018-04-17T13:15:42.826Z,42.93
2018-04-17T13:18:10.341Z,42.73
2018-04-17T13:20:38.659Z,41.70
2018-04-17T13:23:06.212Z,43.20
2018-04-17T13:25:33.775Z,41.30
2018-04-17T13:28:01.294Z,37.60
2018-04-17T13:30:28.849Z,39.87
2018-04-17T13:32:57.138Z,40.17
2018-04-17T13:35:25.435Z,36.93
2018-04-17T13:37:52.987Z,42.53
2018-04-17T13:40:20.525Z,38.67
2018-04-17T13:42:48.081Z,41.13
2018-04-17T13:45:15.674Z,39.37
2018-04-17T13:47:43.193Z,36.83
2018-04-17T13:50:10.753Z,38.40
2018-04-17T13:52:38.269Z,37.30
2018-04-17T13:55:05.840Z,39.33
2018-04-17T13:57:33.353Z,38.20
2018-04-17T14:00:01.675Z,37.20
2018-04-17T14:02:29.250Z,39.10
2018-04-17T14:04:56.915Z,39.17
2018-04-17T14:07:24.466Z,38.33
2018-04-17T14:09:52.065Z,39.90
2018-04-17T14:12:20.409Z,39.27
2018-04-17T14:14:47.953Z,38.60
2018-04-17T14:17:15.527Z,37.50
2018-04-17T14:19:43.051Z,41.60
2018-04-17T14:22:10.606Z,36.47
2018-04-17T14:24:38.134Z,40.17
2018-04-17T14:27:06.442Z,39.10
2018-04-17T14:29:33.979Z,38.77
2018-04-17T14:32:02.285Z,37.90
2018-04-17T14:34:29.807Z,40.30
2018-04-17T14:36:57.351Z,39.67
2018-04-17T14:39:24.857Z,33.80
2018-04-17T14:41:52.429Z,37.17
2018-04-17T14:44:19.946Z,39.07
2018-04-17T14:46:48.259Z,31.87
2018-04-17T14:49:15.814Z,36.63
2018-04-17T14:51:43.359Z,38.33
2018-04-17T14:54:10.892Z,37.47
2018-04-17T14:56:38.465Z,29.50
2018-04-17T14:59:06.887Z,31.20
2018-04-17T15:01:34.439Z,29.83
2018-04-17T15:04:02.033Z,31.57
2018-04-17T15:06:29.616Z,28.60
2018-04-17T15:08:57.178Z,32.13
2018-04-17T15:11:25.500Z,26.97
2018-04-17T15:13:53.132Z,29.43
2018-04-17T15:16:20.707Z,29.10
2018-04-17T15:18:48.237Z,31.57
2018-04-17T15:21:17.463Z,32.43
2018-04-17T15:23:45.061Z,33.20
2018-04-17T15:26:12.697Z,31.47
2018-04-17T15:28:40.221Z,32.00
2018-04-17T15:31:07.902Z,34.63
2018-04-17T15:33:35.436Z,32.53
2018-04-17T15:36:03.773Z,33.07
2018-04-17T15:38:31.313Z,32.77
2018-04-17T15:40:58.970Z,36.00
2018-04-17T15:43:26.636Z,32.67
2018-04-17T15:45:54.165Z,32.77
2018-04-17T15:48:22.491Z,31.60
2018-04-17T15:50:50.089Z,31.30
2018-04-17T15:53:17.664Z,30.97
2018-04-17T15:55:45.234Z,31.13
2018-04-17T15:58:12.796Z,30.50
2018-04-17T16:00:40.349Z,29.43
2018-04-17T16:03:08.039Z,31.87
2018-04-17T16:05:35.543Z,30.87
2018-04-17T16:08:03.207Z,29.73
2018-04-17T16:10:30.751Z,31.50
2018-04-17T16:12:58.415Z,33.80
2018-04-17T16:15:25.901Z,31.40
2018-04-17T16:17:54.229Z,30.37
2018-04-17T16:20:21.779Z,32.33
2018-04-17T16:22:49.544Z,30.90
2018-04-17T16:25:17.581Z,29.20
2018-04-17T16:27:45.137Z,29.30
2018-04-17T16:30:13.164Z,28.17
2018-04-17T16:32:42.320Z,27.50
2018-04-17T16:35:09.843Z,31.60
2018-04-17T16:37:38.165Z,29.97
2018-04-17T16:40:05.709Z,30.43
2018-04-17T16:42:33.383Z,28.47
2018-04-17T16:45:00.914Z,28.40
2018-04-17T16:47:29.210Z,28.73
2018-04-17T16:49:56.767Z,28.10
2018-04-17T16:52:24.441Z,27.40
2018-04-17T16:54:52.124Z,30.10
2018-04-17T16:57:19.850Z,28.53
2018-04-17T16:59:47.367Z,26.17
2018-04-17T17:02:15.113Z,25.33
2018-04-17T17:04:42.737Z,24.87
2018-04-17T17:07:10.261Z,23.30
2018-04-17T17:09:38.607Z,25.53
2018-04-17T17:12:06.164Z,25.50
2018-04-17T17:14:33.761Z,24.73
2018-04-17T17:17:01.334Z,25.20
2018-04-17T17:19:29.700Z,26.80
2018-04-17T17:21:57.433Z,26.00
2018-04-17T17:24:25.034Z,27.73
2018-04-17T17:26:52.594Z,25.97
2018-04-17T17:29:20.927Z,27.03
2018-04-17T17:31:48.606Z,26.47
2018-04-17T17:34:16.189Z,25.47
2018-04-17T17:36:44.625Z,26.70
2018-04-17T17:39:12.212Z,28.07
2018-04-17T17:41:39.759Z,28.33
2018-04-17T17:44:07.459Z,26.40
2018-04-17T17:46:34.959Z,28.10
2018-04-17T17:49:02.507Z,24.37
2018-04-17T17:51:30.036Z,28.80
2018-04-17T17:53:58.634Z,28.00
2018-04-17T17:56:26.162Z,29.33
2018-04-17T17:58:54.589Z,26.60
2018-04-17T18:01:22.136Z,29.60
2018-04-17T18:03:49.715Z,28.40
2018-04-17T18:06:17.263Z,28.10
2018-04-17T18:08:45.670Z,27.60
2018-04-17T18:11:13.287Z,28.90
2018-04-17T18:13:40.844Z,30.03
2018-04-17T18:16:09.160Z,27.77
2018-04-17T18:18:36.684Z,29.17
2018-04-17T18:21:04.221Z,35.33
2018-04-17T18:23:32.497Z,28.70
2018-04-17T18:26:00.917Z,30.20
2018-04-17T18:28:28.584Z,30.77
2018-04-17T18:30:56.133Z,31.97
2018-04-17T18:33:23.723Z,31.47
2018-04-17T18:35:51.377Z,29.97
2018-04-17T18:38:18.901Z,28.77
2018-04-17T18:40:46.441Z,30.00
2018-04-17T18:43:13.956Z,32.07
2018-04-17T18:45:41.506Z,30.87
2018-04-17T18:48:09.109Z,30.87
2018-04-17T18:50:36.716Z,30.37
2018-04-17T18:53:04.234Z,32.33
2018-04-17T18:55:32.550Z,31.30
2018-04-17T18:58:00.184Z,34.03
2018-04-17T19:00:28.473Z,34.10
2018-04-17T19:02:56.069Z,33.67
2018-04-17T19:05:23.709Z,33.93
2018-04-17T19:07:51.228Z,34.57
2018-04-17T19:10:19.520Z,29.33
2018-04-17T19:12:47.921Z,32.67
2018-04-17T19:15:15.612Z,30.90
2018-04-17T19:17:43.291Z,31.80
2018-04-17T19:20:10.834Z,32.70
2018-04-17T19:22:38.587Z,30.93
2018-04-17T19:25:06.160Z,31.70
2018-04-17T19:27:34.548Z,30.43
2018-04-17T19:30:02.068Z,31.60
2018-04-17T19:32:29.609Z,31.87
2018-04-17T19:34:57.289Z,30.87
2018-04-17T19:37:24.840Z,31.30
2018-04-17T19:39:52.478Z,33.50
2018-04-17T19:42:20.794Z,32.43
2018-04-17T19:44:48.361Z,33.70
2018-04-17T19:47:15.905Z,32.00
2018-04-17T19:49:43.436Z,33.77
2018-04-17T19:52:11.171Z,34.70
2018-04-17T19:54:38.701Z,34.07
2018-04-17T19:57:06.507Z,35.00
2018-04-17T19:59:34.009Z,33.10
2018-04-17T20:02:01.571Z,34.60
2018-04-17T20:04:29.100Z,34.57
2018-04-17T20:06:57.407Z,35.77
2018-04-17T20:09:25.010Z,33.80
2018-04-17T20:11:52.530Z,34.37
2018-04-17T20:14:20.292Z,34.17
2018-04-17T20:16:47.992Z,33.30
2018-04-17T20:19:15.533Z,34.60
2018-04-17T20:21:43.156Z,34.80
2018-04-17T20:24:10.707Z,37.13
2018-04-17T20:26:38.251Z,36.07
2018-04-17T20:29:06.556Z,38.60
2018-04-17T20:31:34.132Z,39.60
2018-04-17T20:34:01.681Z,40.83
2018-04-17T20:36:29.507Z,41.30
2018-04-17T20:38:57.056Z,40.50
2018-04-17T20:41:24.580Z,41.47
2018-04-17T20:43:52.116Z,38.67
2018-04-17T20:46:19.690Z,38.70
2018-04-17T20:48:47.227Z,38.40
2018-04-17T20:51:14.844Z,37.93
2018-04-17T20:53:42.401Z,42.70
2018-04-17T20:56:09.949Z,37.23
2018-04-17T20:58:37.452Z,36.53
2018-04-17T21:01:05.759Z,37.20
2018-04-17T21:03:33.342Z,35.33
2018-04-17T21:06:00.894Z,36.80
2018-04-17T21:08:28.409Z,36.37
2018-04-17T21:10:55.942Z,33.33
2018-04-17T21:13:23.473Z,37.70
2018-04-17T21:15:51.037Z,40.90
2018-04-17T21:18:18.557Z,40.77
2018-04-17T21:20:46.114Z,37.10
2018-04-17T21:23:13.669Z,37.07
2018-04-17T21:25:41.966Z,38.00
2018-04-17T21:28:09.513Z,39.40
2018-04-17T21:30:37.395Z,37.70
2018-04-17T21:33:04.964Z,41.70
2018-04-17T21:35:32.488Z,37.87
2018-04-17T21:38:00.041Z,37.20
2018-04-17T21:40:28.331Z,38.57
2018-04-17T21:42:56.116Z,36.63
2018-04-17T21:45:23.773Z,37.20
2018-04-17T21:47:51.337Z,35.90
2018-04-17T21:50:18.888Z,38.50
2018-04-17T21:52:46.583Z,34.43
2018-04-17T21:55:14.209Z,38.27
2018-04-17T21:57:41.862Z,37.70
2018-04-17T22:00:10.418Z,36.40
2018-04-17T22:02:40.166Z,35.50
2018-04-17T22:05:07.898Z,37.67
2018-04-17T22:07:37.451Z,36.00
2018-04-17T22:10:06.491Z,37.60
2018-04-17T22:12:34.909Z,38.33
2018-04-17T22:15:03.811Z,39.03
2018-04-17T22:17:31.366Z,38.70
2018-04-17T22:19:58.929Z,37.10
2018-04-17T22:22:31.718Z,37.40
2018-04-17T22:25:01.633Z,37.83
2018-04-17T22:27:29.156Z,36.70
2018-04-17T22:29:56.696Z,37.10
2018-04-17T22:32:24.218Z,37.67
2018-04-17T22:34:51.842Z,36.80
2018-04-17T23:45:43.549Z,33.80
2018-04-17T23:48:11.088Z,31.43
2018-04-17T23:50:38.599Z,33.90
2018-04-17T23:53:06.153Z,32.83
2018-04-17T23:55:33.654Z,35.87
2018-04-17T23:58:01.146Z,33.97
